sensor_id;sensor_type;location;lat;lon;timestamp;P1;durP1;ratioP1;P2;durP2;ratioP2
33413;SDS011;60055;41.884;12.534;2022-08-11T00:00:18;6.60;;;5.22;;
33413;SDS011;60055;41.884;12.534;2022-08-11T00:02:46;7.57;;;5.07;;
33413;SDS011;60055;41.884;12.534;2022-08-11T00:05:19;7.95;;;5.60;;
33413;SDS011;60055;41.884;12.534;2022-08-11T00:07:49;10.40;;;5.40;;
33413;SDS011;60055;41.884;12.534;2022-08-11T00:10:18;10.02;;;5.30;;
33413;SDS011;60055;41.884;12.534;2022-08-11T00:12:50;10.13;;;5.07;;
33413;SDS011;60055;41.884;12.534;2022-08-11T00:15:27;6.60;;;5.00;;
33413;SDS011;60055;41.884;12.534;2022-08-11T00:18:02;10.05;;;5.07;;
33413;SDS011;60055;41.884;12.534;2022-08-11T00:20:33;8.95;;;5.18;;
33413;SDS011;60055;41.884;12.534;2022-08-11T00:23:06;9.10;;;5.63;;
33413;SDS011;60055;41.884;12.534;2022-08-11T00:25:37;7.75;;;4.93;;
33413;SDS011;60055;41.884;12.534;2022-08-11T00:28:27;8.23;;;5.10;;
33413;SDS011;60055;41.884;12.534;2022-08-11T00:30:53;10.52;;;5.70;;
33413;SDS011;60055;41.884;12.534;2022-08-11T00:33:31;8.02;;;4.95;;
33413;SDS011;60055;41.884;12.534;2022-08-11T00:36:18;8.55;;;5.60;;
33413;SDS011;60055;41.884;12.534;2022-08-11T00:38:45;6.18;;;5.22;;
33413;SDS011;60055;41.884;12.534;2022-08-11T00:44:14;7.80;;;5.30;;
33413;SDS011;60055;41.884;12.534;2022-08-11T00:50:16;8.30;;;5.22;;
33413;SDS011;60055;41.884;12.534;2022-08-11T00:55:24;8.63;;;5.47;;
33413;SDS011;60055;41.884;12.534;2022-08-11T01:54:30;9.38;;;5.80;;
33413;SDS011;60055;41.884;12.534;2022-08-11T01:59:50;9.13;;;5.50;;
33413;SDS011;60055;41.884;12.534;2022-08-11T02:05:46;11.38;;;5.75;;
33413;SDS011;60055;41.884;12.534;2022-08-11T02:11:31;9.27;;;5.70;;
33413;SDS011;60055;41.884;12.534;2022-08-11T02:28:53;6.70;;;4.60;;
33413;SDS011;60055;41.884;12.534;2022-08-11T02:35:08;5.93;;;4.20;;
33413;SDS011;60055;41.884;12.534;2022-08-11T02:43:13;9.73;;;4.40;;
33413;SDS011;60055;41.884;12.534;2022-08-11T02:45:53;7.30;;;4.35;;
33413;SDS011;60055;41.884;12.534;2022-08-11T02:58:58;11.00;;;4.43;;
33413;SDS011;60055;41.884;12.534;2022-08-11T03:04:56;8.07;;;4.05;;
33413;SDS011;60055;41.884;12.534;2022-08-11T03:07:40;7.65;;;4.20;;
33413;SDS011;60055;41.884;12.534;2022-08-11T03:13:12;8.65;;;4.00;;
33413;SDS011;60055;41.884;12.534;2022-08-11T03:16:32;7.75;;;4.13;;
33413;SDS011;60055;41.884;12.534;2022-08-11T03:36:00;7.57;;;4.22;;
33413;SDS011;60055;41.884;12.534;2022-08-11T03:42:09;10.00;;;4.50;;
33413;SDS011;60055;41.884;12.534;2022-08-11T03:55:32;6.22;;;4.15;;
33413;SDS011;60055;41.884;12.534;2022-08-11T04:03:40;8.32;;;4.03;;
33413;SDS011;60055;41.884;12.534;2022-08-11T04:06:44;6.50;;;4.18;;
33413;SDS011;60055;41.884;12.534;2022-08-11T04:24:07;9.77;;;5.55;;
33413;SDS011;60055;41.884;12.534;2022-08-11T04:30:02;12.00;;;4.32;;
33413;SDS011;60055;41.884;12.534;2022-08-11T04:45:02;10.07;;;4.50;;
33413;SDS011;60055;41.884;12.534;2022-08-11T04:53:28;9.10;;;3.83;;
33413;SDS011;60055;41.884;12.534;2022-08-11T04:56:37;11.82;;;4.30;;
33413;SDS011;60055;41.884;12.534;2022-08-11T05:03:42;10.15;;;4.20;;
33413;SDS011;60055;41.884;12.534;2022-08-11T05:09:00;15.25;;;3.95;;
33413;SDS011;60055;41.884;12.534;2022-08-11T05:14:51;7.97;;;3.90;;
33413;SDS011;60055;41.884;12.534;2022-08-11T05:20:52;11.10;;;4.15;;
33413;SDS011;60055;41.884;12.534;2022-08-11T05:23:40;7.78;;;3.80;;
33413;SDS011;60055;41.884;12.534;2022-08-11T05:26:39;13.90;;;3.90;;
33413;SDS011;60055;41.884;12.534;2022-08-11T05:29:46;8.18;;;3.72;;
33413;SDS011;60055;41.884;12.534;2022-08-11T05:32:41;7.10;;;3.78;;
33413;SDS011;60055;41.884;12.534;2022-08-11T05:35:40;7.93;;;4.47;;
33413;SDS011;60055;41.884;12.534;2022-08-11T05:38:12;12.32;;;3.85;;
33413;SDS011;60055;41.884;12.534;2022-08-11T05:41:02;9.80;;;3.80;;
33413;SDS011;60055;41.884;12.534;2022-08-11T05:43:47;6.97;;;3.63;;
33413;SDS011;60055;41.884;12.534;2022-08-11T05:46:40;10.43;;;3.65;;
33413;SDS011;60055;41.884;12.534;2022-08-11T05:49:31;12.20;;;4.05;;
33413;SDS011;60055;41.884;12.534;2022-08-11T05:52:17;10.07;;;3.50;;
33413;SDS011;60055;41.884;12.534;2022-08-11T05:55:05;6.53;;;3.50;;
33413;SDS011;60055;41.884;12.534;2022-08-11T05:57:54;8.05;;;3.50;;
33413;SDS011;60055;41.884;12.534;2022-08-11T06:00:23;7.68;;;3.65;;
33413;SDS011;60055;41.884;12.534;2022-08-11T06:02:53;7.57;;;3.80;;
33413;SDS011;60055;41.884;12.534;2022-08-11T06:05:35;7.13;;;3.63;;
33413;SDS011;60055;41.884;12.534;2022-08-11T06:08:05;9.05;;;3.95;;
33413;SDS011;60055;41.884;12.534;2022-08-11T06:10:33;10.27;;;4.30;;
33413;SDS011;60055;41.884;12.534;2022-08-11T06:13:04;10.27;;;4.00;;
33413;SDS011;60055;41.884;12.534;2022-08-11T06:15:32;10.07;;;4.22;;
33413;SDS011;60055;41.884;12.534;2022-08-11T06:20:44;9.88;;;3.85;;
33413;SDS011;60055;41.884;12.534;2022-08-11T06:23:21;10.05;;;4.50;;
33413;SDS011;60055;41.884;12.534;2022-08-11T06:25:49;8.15;;;4.30;;
33413;SDS011;60055;41.884;12.534;2022-08-11T06:28:17;8.77;;;3.90;;
33413;SDS011;60055;41.884;12.534;2022-08-11T06:30:45;11.68;;;3.70;;
33413;SDS011;60055;41.884;12.534;2022-08-11T06:33:28;11.57;;;3.85;;
33413;SDS011;60055;41.884;12.534;2022-08-11T06:42:08;10.32;;;3.47;;
33413;SDS011;60055;41.884;12.534;2022-08-11T06:44:59;8.95;;;3.95;;
33413;SDS011;60055;41.884;12.534;2022-08-11T06:49:58;11.25;;;3.50;;
33413;SDS011;60055;41.884;12.534;2022-08-11T06:52:44;5.63;;;3.38;;
33413;SDS011;60055;41.884;12.534;2022-08-11T06:55:13;7.53;;;3.38;;
33413;SDS011;60055;41.884;12.534;2022-08-11T06:58:05;7.97;;;3.65;;
33413;SDS011;60055;41.884;12.534;2022-08-11T07:01:02;6.93;;;3.35;;
33413;SDS011;60055;41.884;12.534;2022-08-11T07:03:39;8.68;;;3.00;;
33413;SDS011;60055;41.884;12.534;2022-08-11T07:09:07;9.32;;;3.55;;
33413;SDS011;60055;41.884;12.534;2022-08-11T07:15:30;9.02;;;3.45;;
33413;SDS011;60055;41.884;12.534;2022-08-11T07:18:06;10.00;;;3.28;;
33413;SDS011;60055;41.884;12.534;2022-08-11T07:24:14;9.98;;;3.33;;
33413;SDS011;60055;41.884;12.534;2022-08-11T07:27:09;11.65;;;3.72;;
33413;SDS011;60055;41.884;12.534;2022-08-11T07:30:04;7.45;;;3.47;;
33413;SDS011;60055;41.884;12.534;2022-08-11T07:32:33;11.68;;;3.63;;
33413;SDS011;60055;41.884;12.534;2022-08-11T07:35:09;11.80;;;3.67;;
33413;SDS011;60055;41.884;12.534;2022-08-11T07:37:37;5.32;;;3.42;;
33413;SDS011;60055;41.884;12.534;2022-08-11T07:40:08;8.23;;;3.70;;
33413;SDS011;60055;41.884;12.534;2022-08-11T07:42:35;7.93;;;3.50;;
33413;SDS011;60055;41.884;12.534;2022-08-11T07:45:04;10.73;;;3.67;;
33413;SDS011;60055;41.884;12.534;2022-08-11T07:47:49;12.23;;;3.67;;
33413;SDS011;60055;41.884;12.534;2022-08-11T07:50:40;9.45;;;3.40;;
33413;SDS011;60055;41.884;12.534;2022-08-11T07:53:28;14.45;;;3.38;;
33413;SDS011;60055;41.884;12.534;2022-08-11T07:55:55;15.57;;;4.15;;
33413;SDS011;60055;41.884;12.534;2022-08-11T07:58:23;9.32;;;3.67;;
33413;SDS011;60055;41.884;12.534;2022-08-11T08:01:08;11.25;;;3.80;;
33413;SDS011;60055;41.884;12.534;2022-08-11T08:03:55;6.78;;;3.60;;
33413;SDS011;60055;41.884;12.534;2022-08-11T08:06:42;6.90;;;3.47;;
33413;SDS011;60055;41.884;12.534;2022-08-11T08:09:28;9.18;;;3.70;;
33413;SDS011;60055;41.884;12.534;2022-08-11T08:12:16;10.82;;;3.90;;
33413;SDS011;60055;41.884;12.534;2022-08-11T08:15:05;12.60;;;3.97;;
33413;SDS011;60055;41.884;12.534;2022-08-11T08:17:51;8.77;;;3.72;;
33413;SDS011;60055;41.884;12.534;2022-08-11T08:20:23;10.73;;;3.95;;
33413;SDS011;60055;41.884;12.534;2022-08-11T08:22:59;7.65;;;4.00;;
33413;SDS011;60055;41.884;12.534;2022-08-11T08:25:27;8.30;;;3.72;;
33413;SDS011;60055;41.884;12.534;2022-08-11T08:27:55;10.23;;;3.90;;
33413;SDS011;60055;41.884;12.534;2022-08-11T08:30:27;10.70;;;3.90;;
33413;SDS011;60055;41.884;12.534;2022-08-11T08:33:12;9.85;;;3.95;;
33413;SDS011;60055;41.884;12.534;2022-08-11T08:35:42;11.85;;;3.97;;
33413;SDS011;60055;41.884;12.534;2022-08-11T08:38:09;9.10;;;4.00;;
33413;SDS011;60055;41.884;12.534;2022-08-11T08:40:36;7.18;;;3.70;;
33413;SDS011;60055;41.884;12.534;2022-08-11T08:43:06;6.70;;;3.90;;
33413;SDS011;60055;41.884;12.534;2022-08-11T08:45:36;9.23;;;4.22;;
33413;SDS011;60055;41.884;12.534;2022-08-11T08:48:05;9.48;;;4.10;;
33413;SDS011;60055;41.884;12.534;2022-08-11T08:50:36;11.05;;;4.35;;
33413;SDS011;60055;41.884;12.534;2022-08-11T08:53:26;7.95;;;4.30;;
33413;SDS011;60055;41.884;12.534;2022-08-11T08:55:57;9.52;;;5.63;;
33413;SDS011;60055;41.884;12.534;2022-08-11T08:58:24;10.45;;;4.47;;
33413;SDS011;60055;41.884;12.534;2022-08-11T09:00:51;9.43;;;4.43;;
33413;SDS011;60055;41.884;12.534;2022-08-11T09:03:18;8.98;;;3.90;;
33413;SDS011;60055;41.884;12.534;2022-08-11T09:05:45;9.02;;;4.60;;
33413;SDS011;60055;41.884;12.534;2022-08-11T09:08:12;9.40;;;4.45;;
33413;SDS011;60055;41.884;12.534;2022-08-11T09:10:44;10.60;;;3.92;;
33413;SDS011;60055;41.884;12.534;2022-08-11T09:13:31;10.02;;;4.07;;
33413;SDS011;60055;41.884;12.534;2022-08-11T09:15:58;12.23;;;4.57;;
33413;SDS011;60055;41.884;12.534;2022-08-11T09:18:24;7.30;;;3.95;;
33413;SDS011;60055;41.884;12.534;2022-08-11T09:20:50;7.65;;;3.95;;
33413;SDS011;60055;41.884;12.534;2022-08-11T09:23:16;9.20;;;4.38;;
33413;SDS011;60055;41.884;12.534;2022-08-11T09:26:01;12.40;;;4.30;;
33413;SDS011;60055;41.884;12.534;2022-08-11T09:28:46;14.20;;;4.20;;
33413;SDS011;60055;41.884;12.534;2022-08-11T09:31:14;9.75;;;4.10;;
33413;SDS011;60055;41.884;12.534;2022-08-11T09:33:40;9.65;;;4.22;;
33413;SDS011;60055;41.884;12.534;2022-08-11T09:36:08;8.07;;;4.20;;
33413;SDS011;60055;41.884;12.534;2022-08-11T09:38:54;7.00;;;4.43;;
33413;SDS011;60055;41.884;12.534;2022-08-11T09:41:39;9.52;;;4.32;;
33413;SDS011;60055;41.884;12.534;2022-08-11T09:44:07;6.80;;;3.75;;
33413;SDS011;60055;41.884;12.534;2022-08-11T09:46:53;7.63;;;4.10;;
33413;SDS011;60055;41.884;12.534;2022-08-11T09:49:23;8.05;;;4.80;;
33413;SDS011;60055;41.884;12.534;2022-08-11T09:51:49;9.10;;;4.30;;
33413;SDS011;60055;41.884;12.534;2022-08-11T09:54:17;9.27;;;4.47;;
33413;SDS011;60055;41.884;12.534;2022-08-11T09:56:43;10.20;;;4.47;;
33413;SDS011;60055;41.884;12.534;2022-08-11T09:59:28;9.95;;;4.07;;
33413;SDS011;60055;41.884;12.534;2022-08-11T10:01:59;8.45;;;4.10;;
33413;SDS011;60055;41.884;12.534;2022-08-11T10:04:30;11.07;;;4.25;;
33413;SDS011;60055;41.884;12.534;2022-08-11T10:07:04;8.82;;;3.90;;
33413;SDS011;60055;41.884;12.534;2022-08-11T10:09:41;5.82;;;4.00;;
33413;SDS011;60055;41.884;12.534;2022-08-11T10:12:24;10.15;;;4.10;;
33413;SDS011;60055;41.884;12.534;2022-08-11T10:14:54;6.45;;;3.83;;
33413;SDS011;60055;41.884;12.534;2022-08-11T10:17:45;8.00;;;4.30;;
33413;SDS011;60055;41.884;12.534;2022-08-11T10:20:33;10.50;;;4.10;;
33413;SDS011;60055;41.884;12.534;2022-08-11T10:23:01;11.00;;;4.25;;
33413;SDS011;60055;41.884;12.534;2022-08-11T10:25:46;12.35;;;4.07;;
33413;SDS011;60055;41.884;12.534;2022-08-11T10:28:31;7.75;;;3.80;;
33413;SDS011;60055;41.884;12.534;2022-08-11T10:30:59;7.47;;;3.55;;
33413;SDS011;60055;41.884;12.534;2022-08-11T10:33:46;9.00;;;3.58;;
33413;SDS011;60055;41.884;12.534;2022-08-11T10:36:38;11.48;;;3.80;;
33413;SDS011;60055;41.884;12.534;2022-08-11T10:39:16;8.02;;;3.95;;
33413;SDS011;60055;41.884;12.534;2022-08-11T10:41:46;18.65;;;12.07;;
33413;SDS011;60055;41.884;12.534;2022-08-11T10:44:31;8.65;;;3.80;;
33413;SDS011;60055;41.884;12.534;2022-08-11T10:47:02;5.88;;;3.63;;
33413;SDS011;60055;41.884;12.534;2022-08-11T10:49:47;5.88;;;3.70;;
33413;SDS011;60055;41.884;12.534;2022-08-11T10:52:34;7.28;;;3.30;;
33413;SDS011;60055;41.884;12.534;2022-08-11T10:55:20;6.93;;;3.55;;
33413;SDS011;60055;41.884;12.534;2022-08-11T10:58:06;6.95;;;3.80;;
33413;SDS011;60055;41.884;12.534;2022-08-11T11:00:53;7.53;;;3.95;;
33413;SDS011;60055;41.884;12.534;2022-08-11T11:03:21;9.27;;;3.60;;
33413;SDS011;60055;41.884;12.534;2022-08-11T11:05:52;11.88;;;3.92;;
33413;SDS011;60055;41.884;12.534;2022-08-11T11:08:26;9.20;;;3.60;;
33413;SDS011;60055;41.884;12.534;2022-08-11T11:11:13;10.80;;;4.70;;
33413;SDS011;60055;41.884;12.534;2022-08-11T11:13:42;7.43;;;3.78;;
33413;SDS011;60055;41.884;12.534;2022-08-11T11:16:36;7.63;;;3.90;;
33413;SDS011;60055;41.884;12.534;2022-08-11T11:19:23;5.03;;;3.60;;
33413;SDS011;60055;41.884;12.534;2022-08-11T11:21:51;6.82;;;3.55;;
33413;SDS011;60055;41.884;12.534;2022-08-11T11:24:53;9.52;;;4.13;;
33413;SDS011;60055;41.884;12.534;2022-08-11T11:27:37;9.38;;;3.53;;
33413;SDS011;60055;41.884;12.534;2022-08-11T11:30:12;11.13;;;3.60;;
33413;SDS011;60055;41.884;12.534;2022-08-11T11:32:42;7.82;;;3.40;;
33413;SDS011;60055;41.884;12.534;2022-08-11T11:35:40;6.28;;;3.40;;
33413;SDS011;60055;41.884;12.534;2022-08-11T11:38:30;7.82;;;3.88;;
33413;SDS011;60055;41.884;12.534;2022-08-11T11:40:56;6.45;;;3.78;;
33413;SDS011;60055;41.884;12.534;2022-08-11T11:43:40;8.52;;;3.90;;
33413;SDS011;60055;41.884;12.534;2022-08-11T11:46:06;9.05;;;3.90;;
33413;SDS011;60055;41.884;12.534;2022-08-11T11:48:34;6.53;;;3.47;;
33413;SDS011;60055;41.884;12.534;2022-08-11T11:51:00;5.28;;;3.78;;
33413;SDS011;60055;41.884;12.534;2022-08-11T11:53:26;10.63;;;4.15;;
33413;SDS011;60055;41.884;12.534;2022-08-11T11:55:52;14.00;;;4.38;;
33413;SDS011;60055;41.884;12.534;2022-08-11T11:58:18;7.55;;;4.13;;
33413;SDS011;60055;41.884;12.534;2022-08-11T12:01:03;8.95;;;4.30;;
33413;SDS011;60055;41.884;12.534;2022-08-11T12:03:44;9.02;;;3.78;;
33413;SDS011;60055;41.884;12.534;2022-08-11T12:06:12;9.60;;;4.15;;
33413;SDS011;60055;41.884;12.534;2022-08-11T12:08:38;8.10;;;3.83;;
33413;SDS011;60055;41.884;12.534;2022-08-11T12:11:05;7.28;;;4.20;;
33413;SDS011;60055;41.884;12.534;2022-08-11T12:13:52;9.70;;;4.90;;
33413;SDS011;60055;41.884;12.534;2022-08-11T12:16:19;7.35;;;4.28;;
33413;SDS011;60055;41.884;12.534;2022-08-11T12:18:46;9.10;;;4.50;;
33413;SDS011;60055;41.884;12.534;2022-08-11T12:21:14;8.02;;;3.88;;
33413;SDS011;60055;41.884;12.534;2022-08-11T12:23:41;9.70;;;4.40;;
33413;SDS011;60055;41.884;12.534;2022-08-11T12:26:27;10.40;;;4.90;;
33413;SDS011;60055;41.884;12.534;2022-08-11T12:29:12;7.95;;;4.72;;
33413;SDS011;60055;41.884;12.534;2022-08-11T12:31:39;9.02;;;5.50;;
33413;SDS011;60055;41.884;12.534;2022-08-11T12:34:07;9.90;;;4.75;;
33413;SDS011;60055;41.884;12.534;2022-08-11T12:39:21;20.77;;;5.03;;
33413;SDS011;60055;41.884;12.534;2022-08-11T12:42:09;14.52;;;4.53;;
33413;SDS011;60055;41.884;12.534;2022-08-11T12:44:56;22.25;;;5.90;;
33413;SDS011;60055;41.884;12.534;2022-08-11T12:47:45;32.92;;;8.18;;
33413;SDS011;60055;41.884;12.534;2022-08-11T12:50:33;47.00;;;10.43;;
33413;SDS011;60055;41.884;12.534;2022-08-11T12:53:22;36.55;;;10.25;;
33413;SDS011;60055;41.884;12.534;2022-08-11T12:55:53;46.55;;;12.30;;
33413;SDS011;60055;41.884;12.534;2022-08-11T12:58:40;35.08;;;9.32;;
33413;SDS011;60055;41.884;12.534;2022-08-11T13:01:08;26.25;;;8.38;;
33413;SDS011;60055;41.884;12.534;2022-08-11T13:03:53;21.48;;;8.25;;
33413;SDS011;60055;41.884;12.534;2022-08-11T13:06:38;18.80;;;7.28;;
33413;SDS011;60055;41.884;12.534;2022-08-11T13:09:06;20.63;;;6.82;;
33413;SDS011;60055;41.884;12.534;2022-08-11T13:11:33;12.15;;;5.43;;
33413;SDS011;60055;41.884;12.534;2022-08-11T13:14:21;15.15;;;5.30;;
33413;SDS011;60055;41.884;12.534;2022-08-11T13:16:47;14.45;;;5.30;;
33413;SDS011;60055;41.884;12.534;2022-08-11T13:19:32;17.60;;;4.93;;
33413;SDS011;60055;41.884;12.534;2022-08-11T13:21:59;11.50;;;5.10;;
33413;SDS011;60055;41.884;12.534;2022-08-11T13:24:26;11.85;;;5.18;;
33413;SDS011;60055;41.884;12.534;2022-08-11T13:26:53;10.68;;;5.07;;
33413;SDS011;60055;41.884;12.534;2022-08-11T13:29:23;16.77;;;5.53;;
33413;SDS011;60055;41.884;12.534;2022-08-11T13:31:51;8.93;;;5.03;;
33413;SDS011;60055;41.884;12.534;2022-08-11T13:34:20;11.77;;;4.60;;
33413;SDS011;60055;41.884;12.534;2022-08-11T13:36:59;8.43;;;4.82;;
33413;SDS011;60055;41.884;12.534;2022-08-11T13:39:27;8.32;;;4.50;;
33413;SDS011;60055;41.884;12.534;2022-08-11T13:41:56;11.93;;;4.40;;
33413;SDS011;60055;41.884;12.534;2022-08-11T13:44:24;10.77;;;4.10;;
33413;SDS011;60055;41.884;12.534;2022-08-11T13:46:53;7.95;;;4.07;;
33413;SDS011;60055;41.884;12.534;2022-08-11T13:49:22;7.10;;;3.78;;
33413;SDS011;60055;41.884;12.534;2022-08-11T13:51:49;9.00;;;3.90;;
33413;SDS011;60055;41.884;12.534;2022-08-11T13:54:18;8.65;;;3.85;;
33413;SDS011;60055;41.884;12.534;2022-08-11T13:56:46;5.88;;;3.70;;
33413;SDS011;60055;41.884;12.534;2022-08-11T13:59:14;10.27;;;4.20;;
33413;SDS011;60055;41.884;12.534;2022-08-11T14:01:48;7.88;;;4.05;;
33413;SDS011;60055;41.884;12.534;2022-08-11T14:04:27;9.55;;;4.15;;
33413;SDS011;60055;41.884;12.534;2022-08-11T14:06:57;10.23;;;3.85;;
33413;SDS011;60055;41.884;12.534;2022-08-11T14:09:27;7.10;;;3.70;;
33413;SDS011;60055;41.884;12.534;2022-08-11T14:11:59;10.60;;;3.90;;
33413;SDS011;60055;41.884;12.534;2022-08-11T14:14:51;8.95;;;3.60;;
33413;SDS011;60055;41.884;12.534;2022-08-11T14:17:28;6.83;;;3.30;;
33413;SDS011;60055;41.884;12.534;2022-08-11T14:19:57;6.40;;;3.65;;
33413;SDS011;60055;41.884;12.534;2022-08-11T14:22:28;10.32;;;3.60;;
33413;SDS011;60055;41.884;12.534;2022-08-11T14:24:55;6.70;;;3.20;;
33413;SDS011;60055;41.884;12.534;2022-08-11T14:27:22;9.32;;;3.60;;
33413;SDS011;60055;41.884;12.534;2022-08-11T14:29:55;9.70;;;3.53;;
33413;SDS011;60055;41.884;12.534;2022-08-11T14:32:22;5.55;;;3.47;;
33413;SDS011;60055;41.884;12.534;2022-08-11T14:34:49;5.82;;;3.42;;
33413;SDS011;60055;41.884;12.534;2022-08-11T14:37:20;4.95;;;3.40;;
33413;SDS011;60055;41.884;12.534;2022-08-11T14:39:48;6.40;;;3.70;;
33413;SDS011;60055;41.884;12.534;2022-08-11T14:42:20;5.88;;;3.50;;
33413;SDS011;60055;41.884;12.534;2022-08-11T14:45:14;9.55;;;3.80;;
33413;SDS011;60055;41.884;12.534;2022-08-11T14:48:01;6.47;;;3.60;;
33413;SDS011;60055;41.884;12.534;2022-08-11T14:50:30;7.75;;;3.80;;
33413;SDS011;60055;41.884;12.534;2022-08-11T14:53:01;9.15;;;3.85;;
33413;SDS011;60055;41.884;12.534;2022-08-11T14:55:31;4.93;;;3.10;;
33413;SDS011;60055;41.884;12.534;2022-08-11T14:58:19;7.07;;;3.50;;
33413;SDS011;60055;41.884;12.534;2022-08-11T15:00:57;6.47;;;3.35;;
33413;SDS011;60055;41.884;12.534;2022-08-11T15:03:25;7.65;;;3.58;;
33413;SDS011;60055;41.884;12.534;2022-08-11T15:05:53;5.53;;;3.47;;
33413;SDS011;60055;41.884;12.534;2022-08-11T15:08:21;6.72;;;3.40;;
33413;SDS011;60055;41.884;12.534;2022-08-11T15:11:07;6.85;;;3.30;;
33413;SDS011;60055;41.884;12.534;2022-08-11T15:13:55;7.18;;;3.70;;
33413;SDS011;60055;41.884;12.534;2022-08-11T15:16:23;5.40;;;3.38;;
33413;SDS011;60055;41.884;12.534;2022-08-11T15:19:09;5.40;;;3.53;;
33413;SDS011;60055;41.884;12.534;2022-08-11T15:21:35;9.35;;;3.60;;
33413;SDS011;60055;41.884;12.534;2022-08-11T15:24:19;8.88;;;3.33;;
33413;SDS011;60055;41.884;12.534;2022-08-11T15:26:45;6.05;;;3.50;;
33413;SDS011;60055;41.884;12.534;2022-08-11T15:29:33;9.38;;;4.55;;
33413;SDS011;60055;41.884;12.534;2022-08-11T15:32:21;9.23;;;3.75;;
33413;SDS011;60055;41.884;12.534;2022-08-11T15:35:07;9.23;;;3.97;;
33413;SDS011;60055;41.884;12.534;2022-08-11T15:37:54;8.38;;;3.80;;
33413;SDS011;60055;41.884;12.534;2022-08-11T15:40:27;7.10;;;3.67;;
33413;SDS011;60055;41.884;12.534;2022-08-11T15:46:28;10.05;;;3.75;;
33413;SDS011;60055;41.884;12.534;2022-08-11T15:51:42;9.23;;;4.75;;
33413;SDS011;60055;41.884;12.534;2022-08-11T15:54:26;8.38;;;4.00;;
33413;SDS011;60055;41.884;12.534;2022-08-11T15:56:55;11.10;;;4.88;;
33413;SDS011;60055;41.884;12.534;2022-08-11T15:59:25;13.20;;;4.70;;
33413;SDS011;60055;41.884;12.534;2022-08-11T16:02:14;10.57;;;4.68;;
33413;SDS011;60055;41.884;12.534;2022-08-11T16:05:01;13.52;;;5.15;;
33413;SDS011;60055;41.884;12.534;2022-08-11T16:07:31;12.60;;;5.32;;
33413;SDS011;60055;41.884;12.534;2022-08-11T16:10:03;27.67;;;17.20;;
33413;SDS011;60055;41.884;12.534;2022-08-11T16:15:07;10.80;;;5.22;;
33413;SDS011;60055;41.884;12.534;2022-08-11T16:17:55;7.72;;;3.85;;
33413;SDS011;60055;41.884;12.534;2022-08-11T16:20:26;10.23;;;5.40;;
33413;SDS011;60055;41.884;12.534;2022-08-11T16:23:02;13.93;;;4.68;;
33413;SDS011;60055;41.884;12.534;2022-08-11T16:25:32;8.30;;;6.20;;
33413;SDS011;60055;41.884;12.534;2022-08-11T16:28:01;9.45;;;5.03;;
33413;SDS011;60055;41.884;12.534;2022-08-11T16:30:31;13.48;;;4.32;;
33413;SDS011;60055;41.884;12.534;2022-08-11T16:32:59;6.85;;;4.00;;
33413;SDS011;60055;41.884;12.534;2022-08-11T16:35:28;8.52;;;4.70;;
33413;SDS011;60055;41.884;12.534;2022-08-11T16:38:14;11.27;;;4.00;;
33413;SDS011;60055;41.884;12.534;2022-08-11T16:40:59;14.95;;;3.60;;
33413;SDS011;60055;41.884;12.534;2022-08-11T16:43:39;7.53;;;2.90;;
33413;SDS011;60055;41.884;12.534;2022-08-11T16:46:27;12.55;;;4.38;;
33413;SDS011;60055;41.884;12.534;2022-08-11T16:49:15;10.25;;;3.33;;
33413;SDS011;60055;41.884;12.534;2022-08-11T16:51:44;7.45;;;3.00;;
33413;SDS011;60055;41.884;12.534;2022-08-11T16:54:10;10.10;;;3.22;;
33413;SDS011;60055;41.884;12.534;2022-08-11T16:56:49;9.23;;;3.10;;
33413;SDS011;60055;41.884;12.534;2022-08-11T16:59:28;8.25;;;2.90;;
33413;SDS011;60055;41.884;12.534;2022-08-11T17:02:09;8.65;;;3.40;;
33413;SDS011;60055;41.884;12.534;2022-08-11T17:04:59;5.80;;;2.63;;
33413;SDS011;60055;41.884;12.534;2022-08-11T17:07:49;8.77;;;2.78;;
33413;SDS011;60055;41.884;12.534;2022-08-11T17:10:52;9.07;;;2.63;;
33413;SDS011;60055;41.884;12.534;2022-08-11T17:13:47;7.05;;;3.25;;
33413;SDS011;60055;41.884;12.534;2022-08-11T17:16:19;11.55;;;2.80;;
33413;SDS011;60055;41.884;12.534;2022-08-11T17:18:59;13.82;;;2.97;;
33413;SDS011;60055;41.884;12.534;2022-08-11T17:21:30;4.90;;;2.78;;
33413;SDS011;60055;41.884;12.534;2022-08-11T17:24:09;9.57;;;3.20;;
33413;SDS011;60055;41.884;12.534;2022-08-11T17:29:32;13.60;;;3.13;;
33413;SDS011;60055;41.884;12.534;2022-08-11T17:32:03;10.88;;;3.00;;
33413;SDS011;60055;41.884;12.534;2022-08-11T17:34:49;6.68;;;2.80;;
33413;SDS011;60055;41.884;12.534;2022-08-11T17:37:36;6.57;;;2.85;;
33413;SDS011;60055;41.884;12.534;2022-08-11T17:40:04;7.47;;;2.60;;
33413;SDS011;60055;41.884;12.534;2022-08-11T17:42:33;6.30;;;2.67;;
33413;SDS011;60055;41.884;12.534;2022-08-11T17:45:19;10.00;;;3.20;;
33413;SDS011;60055;41.884;12.534;2022-08-11T17:48:12;7.45;;;3.33;;
33413;SDS011;60055;41.884;12.534;2022-08-11T17:50:52;9.20;;;3.20;;
33413;SDS011;60055;41.884;12.534;2022-08-11T17:53:21;10.77;;;3.45;;
33413;SDS011;60055;41.884;12.534;2022-08-11T17:56:06;11.43;;;2.80;;
33413;SDS011;60055;41.884;12.534;2022-08-11T17:58:51;6.60;;;2.78;;
33413;SDS011;60055;41.884;12.534;2022-08-11T18:01:38;9.73;;;3.03;;
33413;SDS011;60055;41.884;12.534;2022-08-11T18:04:06;8.90;;;3.20;;
33413;SDS011;60055;41.884;12.534;2022-08-11T18:06:34;9.23;;;3.00;;
33413;SDS011;60055;41.884;12.534;2022-08-11T18:09:04;8.63;;;2.90;;
33413;SDS011;60055;41.884;12.534;2022-08-11T18:11:52;16.13;;;2.70;;
33413;SDS011;60055;41.884;12.534;2022-08-11T18:14:38;7.07;;;2.63;;
33413;SDS011;60055;41.884;12.534;2022-08-11T18:17:27;9.85;;;2.80;;
33413;SDS011;60055;41.884;12.534;2022-08-11T18:20:11;10.05;;;2.67;;
33413;SDS011;60055;41.884;12.534;2022-08-11T18:22:55;7.53;;;3.08;;
33413;SDS011;60055;41.884;12.534;2022-08-11T18:25:44;7.15;;;2.70;;
33413;SDS011;60055;41.884;12.534;2022-08-11T18:28:38;9.32;;;2.95;;
33413;SDS011;60055;41.884;12.534;2022-08-11T18:31:28;12.55;;;2.75;;
33413;SDS011;60055;41.884;12.534;2022-08-11T18:34:21;12.48;;;3.08;;
33413;SDS011;60055;41.884;12.534;2022-08-11T18:37:12;13.45;;;2.95;;
33413;SDS011;60055;41.884;12.534;2022-08-11T18:40:02;11.63;;;2.67;;
33413;SDS011;60055;41.884;12.534;2022-08-11T18:42:56;12.25;;;3.00;;
33413;SDS011;60055;41.884;12.534;2022-08-11T18:45:43;10.02;;;3.00;;
33413;SDS011;60055;41.884;12.534;2022-08-11T18:48:30;13.60;;;3.40;;
33413;SDS011;60055;41.884;12.534;2022-08-11T18:51:17;15.32;;;2.80;;
33413;SDS011;60055;41.884;12.534;2022-08-11T18:54:06;10.43;;;3.05;;
33413;SDS011;60055;41.884;12.534;2022-08-11T18:56:53;13.27;;;3.47;;
33413;SDS011;60055;41.884;12.534;2022-08-11T18:59:41;14.38;;;3.45;;
33413;SDS011;60055;41.884;12.534;2022-08-11T19:02:28;13.93;;;3.30;;
33413;SDS011;60055;41.884;12.534;2022-08-11T19:05:14;8.75;;;3.28;;
33413;SDS011;60055;41.884;12.534;2022-08-11T19:08:00;16.00;;;3.78;;
33413;SDS011;60055;41.884;12.534;2022-08-11T19:10:47;13.95;;;3.78;;
33413;SDS011;60055;41.884;12.534;2022-08-11T19:13:34;9.32;;;3.53;;
33413;SDS011;60055;41.884;12.534;2022-08-11T19:16:21;11.40;;;3.20;;
33413;SDS011;60055;41.884;12.534;2022-08-11T19:19:08;12.43;;;3.72;;
33413;SDS011;60055;41.884;12.534;2022-08-11T19:21:55;9.35;;;3.90;;
33413;SDS011;60055;41.884;12.534;2022-08-11T19:24:41;11.57;;;3.20;;
33413;SDS011;60055;41.884;12.534;2022-08-11T19:27:29;9.85;;;3.40;;